Time,TemperatureF,DewpointF,PressureIn,WindDirection,WindDirectionDegrees,WindSpeedMPH,WindSpeedGustMPH,Humidity,HourlyPrecipIn,Conditions,Clouds,dailyrainin,SoftwareType,DateUTC
2013-01-09 00:02:00,29.1,13.8,-100.00,North,-999,-999.0,-999.0,48,-99.99,,,-99.99,WSDL version 420,2013-01-09 07:02:00,
2013-01-09 00:07:00,29.3,14.0,-100.00,North,-999,-999.0,-999.0,48,-99.99,,,-99.99,WSDL version 420,2013-01-09 07:07:00,
2013-01-09 00:12:00,29.7,14.4,-100.00,North,-999,-999.0,-999.0,49,-99.99,,,-99.99,WSDL version 420,2013-01-09 07:12:00,
2013-01-09 00:17:00,30.1,15.1,-100.00,North,-999,-999.0,-999.0,49,-99.99,,,-99.99,WSDL version 420,2013-01-09 07:17:00,
2013-01-09 00:22:00,30.5,15.5,-100.00,North,-999,-999.0,-999.0,49,-99.99,,,-99.99,WSDL version 420,2013-01-09 07:22:00,
2013-01-09 00:27:00,30.7,15.5,-100.00,North,-999,-999.0,-999.0,48,-99.99,,,-99.99,WSDL version 420,2013-01-09 07:27:00,
2013-01-09 00:32:00,30.9,15.4,-100.00,North,-999,-999.0,-999.0,48,-99.99,,,-99.99,WSDL version 420,2013-01-09 07:32:00,
2013-01-09 00:37:00,30.9,15.4,-100.00,North,-999,-999.0,-999.0,48,-99.99,,,-99.99,WSDL version 420,2013-01-09 07:37:00,
2013-01-09 00:42:00,30.8,15.3,-100.00,North,-999,-999.0,-999.0,48,-99.99,,,-99.99,WSDL version 420,2013-01-09 07:42:00,
2013-01-09 00:47:00,30.5,15.0,-100.00,North,-999,-999.0,-999.0,48,-99.99,,,-99.99,WSDL version 420,2013-01-09 07:47:00,
2013-01-09 00:52:00,30.1,14.8,-100.00,North,-999,-999.0,-999.0,48,-99.99,,,-99.99,WSDL version 420,2013-01-09 07:52:00,
2013-01-09 00:57:00,29.6,14.2,-100.00,North,-999,-999.0,-999.0,48,-99.99,,,-99.99,WSDL version 420,2013-01-09 07:57:00,
2013-01-09 01:13:00,29.1,14.2,-100.00,North,-999,-999.0,-999.0,49,-99.99,,,-99.99,WSDL version 420,2013-01-09 08:13:00,
2013-01-09 01:18:00,28.8,13.9,-100.00,North,-999,-999.0,-999.0,49,-99.99,,,-99.99,WSDL version 420,2013-01-09 08:18:00,
2013-01-09 01:23:00,28.6,13.7,-100.00,North,-999,-999.0,-999.0,49,-99.99,,,-99.99,WSDL version 420,2013-01-09 08:23:00,
2013-01-09 01:28:00,28.6,13.7,-100.00,North,-999,-999.0,-999.0,50,-99.99,,,-99.99,WSDL version 420,2013-01-09 08:28:00,
2013-01-09 01:33:00,28.2,13.7,-100.00,North,-999,-999.0,-999.0,50,-99.99,,,-99.99,WSDL version 420,2013-01-09 08:33:00,
2013-01-09 01:38:00,27.9,13.4,-100.00,North,-999,-999.0,-999.0,50,-99.99,,,-99.99,WSDL version 420,2013-01-09 08:38:00,
2013-01-09 01:43:00,27.9,13.4,-100.00,North,-999,-999.0,-999.0,50,-99.99,,,-99.99,WSDL version 420,2013-01-09 08:43:00,
2013-01-09 01:48:00,27.9,13.4,-100.00,North,-999,-999.0,-999.0,50,-99.99,,,-99.99,WSDL version 420,2013-01-09 08:48:00,
2013-01-09 01:53:00,28.2,14.1,-100.00,North,-999,-999.0,-999.0,51,-99.99,,,-99.99,WSDL version 420,2013-01-09 08:53:00,
2013-01-09 01:58:00,29.0,14.9,-100.00,North,-999,-999.0,-999.0,51,-99.99,,,-99.99,WSDL version 420,2013-01-09 08:58:00,
2013-01-09 02:13:00,31.8,17.5,-100.00,North,-999,-999.0,-999.0,51,-99.99,,,-99.99,WSDL version 420,2013-01-09 09:13:00,
2013-01-09 02:18:00,32.2,16.6,-100.00,North,-999,-999.0,-999.0,51,-99.99,,,-99.99,WSDL version 420,2013-01-09 09:18:00,
2013-01-09 02:23:00,33.1,16.9,-100.00,North,-999,-999.0,-999.0,51,-99.99,,,-99.99,WSDL version 420,2013-01-09 09:23:00,
2013-01-09 02:28:00,33.6,17.2,-100.00,North,-999,-999.0,-999.0,50,-99.99,,,-99.99,WSDL version 420,2013-01-09 09:28:00,
2013-01-09 02:33:00,34.0,17.3,-100.00,North,-999,-999.0,-999.0,50,-99.99,,,-99.99,WSDL version 420,2013-01-09 09:33:00,
2013-01-09 02:38:00,34.3,17.6,-100.00,North,-999,-999.0,-999.0,50,-99.99,,,-99.99,WSDL version 420,2013-01-09 09:38:00,
2013-01-09 02:43:00,34.5,17.8,-100.00,North,-999,-999.0,-999.0,50,-99.99,,,-99.99,WSDL version 420,2013-01-09 09:43:00,
2013-01-09 02:48:00,34.9,18.1,-100.00,North,-999,-999.0,-999.0,50,-99.99,,,-99.99,WSDL version 420,2013-01-09 09:48:00,
2013-01-09 02:53:00,35.4,18.6,-100.00,North,-999,-999.0,-999.0,50,-99.99,,,-99.99,WSDL version 420,2013-01-09 09:53:00,
2013-01-09 02:58:00,35.8,19.0,-100.00,North,-999,-999.0,-999.0,50,-99.99,,,-99.99,WSDL version 420,2013-01-09 09:58:00,
2013-01-09 03:13:00,36.9,19.5,-100.00,North,-999,-999.0,-999.0,49,-99.99,,,-99.99,WSDL version 420,2013-01-09 10:13:00,
2013-01-09 03:18:00,37.0,19.6,-100.00,North,-999,-999.0,-999.0,49,-99.99,,,-99.99,WSDL version 420,2013-01-09 10:18:00,
2013-01-09 03:23:00,37.1,19.7,-100.00,North,-999,-999.0,-999.0,49,-99.99,,,-99.99,WSDL version 420,2013-01-09 10:23:00,
2013-01-09 16:29:00,47.1,22.8,-100.00,North,-999,-999.0,-999.0,38,-99.99,,,-99.99,WSDL version 420,2013-01-09 23:29:00,
2013-01-09 16:30:00,47.0,22.7,-100.00,North,-999,-999.0,-999.0,38,-99.99,,,-99.99,WSDL version 420,2013-01-09 23:30:00,
2013-01-09 16:35:00,46.9,22.6,-100.00,North,-999,-999.0,-999.0,38,-99.99,,,-99.99,WSDL version 420,2013-01-09 23:35:00,
2013-01-09 16:38:00,46.7,22.4,-100.00,North,-999,-999.0,-999.0,38,-99.99,,,-99.99,WSDL version 420,2013-01-09 23:38:00,
2013-01-09 16:43:00,46.5,22.3,-100.00,North,-999,-999.0,-999.0,38,-99.99,,,-99.99,WSDL version 420,2013-01-09 23:43:00,
2013-01-09 16:48:00,46.3,22.1,-100.00,North,-999,-999.0,-999.0,38,-99.99,,,-99.99,WSDL version 420,2013-01-09 23:48:00,
2013-01-09 16:53:00,46.2,22.0,-100.00,North,-999,-999.0,-999.0,38,-99.99,,,-99.99,WSDL version 420,2013-01-09 23:53:00,
2013-01-09 16:58:00,46.0,21.8,-100.00,North,-999,-999.0,-999.0,38,-99.99,,,-99.99,WSDL version 420,2013-01-09 23:58:00,
2013-01-09 17:03:00,45.8,21.6,-100.00,North,-999,-999.0,-999.0,38,-99.99,,,-99.99,WSDL version 420,2013-01-10 00:03:00,
2013-01-09 17:08:00,45.5,21.4,-100.00,North,-999,-999.0,-999.0,38,-99.99,,,-99.99,WSDL version 420,2013-01-10 00:08:00,
2013-01-09 17:13:00,45.4,21.3,-100.00,North,-999,-999.0,-999.0,38,-99.99,,,-99.99,WSDL version 420,2013-01-10 00:13:00,
2013-01-09 17:18:00,45.3,21.2,-100.00,North,-999,-999.0,-999.0,38,-99.99,,,-99.99,WSDL version 420,2013-01-10 00:18:00,
2013-01-09 17:23:00,45.1,21.1,-100.00,North,-999,-999.0,-999.0,38,-99.99,,,-99.99,WSDL version 420,2013-01-10 00:23:00,
2013-01-09 17:28:00,45.1,21.1,-100.00,North,-999,-999.0,-999.0,38,-99.99,,,-99.99,WSDL version 420,2013-01-10 00:28:00,
2013-01-09 17:33:00,45.2,21.1,-100.00,North,-999,-999.0,-999.0,38,-99.99,,,-99.99,WSDL version 420,2013-01-10 00:33:00,
2013-01-09 17:38:00,45.1,21.1,-100.00,North,-999,-999.0,-999.0,38,-99.99,,,-99.99,WSDL version 420,2013-01-10 00:38:00,
2013-01-09 17:43:00,45.1,21.1,-100.00,North,-999,-999.0,-999.0,38,-99.99,,,-99.99,WSDL version 420,2013-01-10 00:43:00,
2013-01-09 17:48:00,45.1,21.1,-100.00,North,-999,-999.0,-999.0,38,-99.99,,,-99.99,WSDL version 420,2013-01-10 00:48:00,
2013-01-09 17:53:00,45.1,21.4,-100.00,North,-999,-999.0,-999.0,39,-99.99,,,-99.99,WSDL version 420,2013-01-10 00:53:00,
2013-01-09 17:58:00,45.1,21.7,-100.00,North,-999,-999.0,-999.0,39,-99.99,,,-99.99,WSDL version 420,2013-01-10 00:58:00,
2013-01-09 18:03:00,45.1,21.7,-100.00,North,-999,-999.0,-999.0,39,-99.99,,,-99.99,WSDL version 420,2013-01-10 01:03:00,
2013-01-09 18:08:00,45.1,21.7,-100.00,North,-999,-999.0,-999.0,39,-99.99,,,-99.99,WSDL version 420,2013-01-10 01:08:00,
2013-01-09 18:13:00,45.0,21.6,-100.00,North,-999,-999.0,-999.0,39,-99.99,,,-99.99,WSDL version 420,2013-01-10 01:13:00,
2013-01-09 18:18:00,45.0,21.5,-100.00,North,-999,-999.0,-999.0,39,-99.99,,,-99.99,WSDL version 420,2013-01-10 01:18:00,
2013-01-09 18:23:00,45.0,21.5,-100.00,North,-999,-999.0,-999.0,39,-99.99,,,-99.99,WSDL version 420,2013-01-10 01:23:00,
2013-01-09 18:28:00,45.0,21.6,-100.00,North,-999,-999.0,-999.0,39,-99.99,,,-99.99,WSDL version 420,2013-01-10 01:28:00,
2013-01-09 18:33:00,45.1,21.7,-100.00,North,-999,-999.0,-999.0,39,-99.99,,,-99.99,WSDL version 420,2013-01-10 01:33:00,
2013-01-09 18:38:00,45.1,21.6,-100.00,North,-999,-999.0,-999.0,39,-99.99,,,-99.99,WSDL version 420,2013-01-10 01:38:00,
2013-01-09 18:43:00,45.0,21.5,-100.00,North,-999,-999.0,-999.0,39,-99.99,,,-99.99,WSDL version 420,2013-01-10 01:43:00,
2013-01-09 18:48:00,45.0,21.5,-100.00,North,-999,-999.0,-999.0,39,-99.99,,,-99.99,WSDL version 420,2013-01-10 01:48:00,
2013-01-09 18:53:00,44.9,21.4,-100.00,North,-999,-999.0,-999.0,39,-99.99,,,-99.99,WSDL version 420,2013-01-10 01:53:00,
2013-01-09 18:58:00,44.8,21.3,-100.00,North,-999,-999.0,-999.0,39,-99.99,,,-99.99,WSDL version 420,2013-01-10 01:58:00,
2013-01-09 19:03:00,44.7,21.3,-100.00,North,-999,-999.0,-999.0,39,-99.99,,,-99.99,WSDL version 420,2013-01-10 02:03:00,
2013-01-09 19:08:00,44.5,21.4,-100.00,North,-999,-999.0,-999.0,40,-99.99,,,-99.99,WSDL version 420,2013-01-10 02:08:00,
2013-01-09 19:13:00,44.2,21.4,-100.00,North,-999,-999.0,-999.0,40,-99.99,,,-99.99,WSDL version 420,2013-01-10 02:13:00,
2013-01-09 19:18:00,44.0,21.2,-100.00,North,-999,-999.0,-999.0,40,-99.99,,,-99.99,WSDL version 420,2013-01-10 02:18:00,
2013-01-09 19:23:00,43.8,21.0,-100.00,North,-999,-999.0,-999.0,40,-99.99,,,-99.99,WSDL version 420,2013-01-10 02:23:00,
2013-01-09 19:28:00,43.5,20.8,-100.00,North,-999,-999.0,-999.0,40,-99.99,,,-99.99,WSDL version 420,2013-01-10 02:28:00,
2013-01-09 19:33:00,43.3,20.6,-100.00,North,-999,-999.0,-999.0,40,-99.99,,,-99.99,WSDL version 420,2013-01-10 02:33:00,
2013-01-09 19:38:00,43.4,20.7,-100.00,North,-999,-999.0,-999.0,40,-99.99,,,-99.99,WSDL version 420,2013-01-10 02:38:00,
2013-01-09 19:43:00,43.2,20.5,-100.00,North,-999,-999.0,-999.0,40,-99.99,,,-99.99,WSDL version 420,2013-01-10 02:43:00,
2013-01-09 19:48:00,42.9,20.2,-100.00,North,-999,-999.0,-999.0,40,-99.99,,,-99.99,WSDL version 420,2013-01-10 02:48:00,
2013-01-09 19:53:00,42.6,20.5,-100.00,North,-999,-999.0,-999.0,41,-99.99,,,-99.99,WSDL version 420,2013-01-10 02:53:00,
2013-01-09 19:58:00,42.4,20.4,-100.00,North,-999,-999.0,-999.0,41,-99.99,,,-99.99,WSDL version 420,2013-01-10 02:58:00,
2013-01-09 20:03:00,42.3,20.3,-100.00,North,-999,-999.0,-999.0,41,-99.99,,,-99.99,WSDL version 420,2013-01-10 03:03:00,
2013-01-09 20:08:00,42.5,20.4,-100.00,North,-999,-999.0,-999.0,41,-99.99,,,-99.99,WSDL version 420,2013-01-10 03:08:00,
2013-01-09 20:13:00,42.6,20.8,-100.00,North,-999,-999.0,-999.0,42,-99.99,,,-99.99,WSDL version 420,2013-01-10 03:13:00,
2013-01-09 20:18:00,42.6,21.1,-100.00,North,-999,-999.0,-999.0,42,-99.99,,,-99.99,WSDL version 420,2013-01-10 03:18:00,
2013-01-09 20:23:00,42.6,21.1,-100.00,North,-999,-999.0,-999.0,42,-99.99,,,-99.99,WSDL version 420,2013-01-10 03:23:00,
2013-01-09 20:28:00,42.6,21.1,-100.00,North,-999,-999.0,-999.0,42,-99.99,,,-99.99,WSDL version 420,2013-01-10 03:28:00,
2013-01-09 20:33:00,42.5,21.0,-100.00,North,-999,-999.0,-999.0,42,-99.99,,,-99.99,WSDL version 420,2013-01-10 03:33:00,
2013-01-09 20:38:00,42.3,20.9,-100.00,North,-999,-999.0,-999.0,42,-99.99,,,-99.99,WSDL version 420,2013-01-10 03:38:00,
2013-01-09 20:43:00,42.3,20.8,-100.00,North,-999,-999.0,-999.0,42,-99.99,,,-99.99,WSDL version 420,2013-01-10 03:43:00,
2013-01-09 20:48:00,42.3,20.8,-100.00,North,-999,-999.0,-999.0,42,-99.99,,,-99.99,WSDL version 420,2013-01-10 03:48:00,
2013-01-09 20:54:00,42.3,20.9,-100.00,North,-999,-999.0,-999.0,42,-99.99,,,-99.99,WSDL version 420,2013-01-10 03:54:00,
2013-01-09 20:59:00,42.4,21.0,-100.00,North,-999,-999.0,-999.0,42,-99.99,,,-99.99,WSDL version 420,2013-01-10 03:59:00,
2013-01-09 21:13:00,42.6,21.7,-100.00,North,-999,-999.0,-999.0,43,-99.99,,,-99.99,WSDL version 420,2013-01-10 04:13:00,
2013-01-09 21:18:00,42.6,21.7,-100.00,North,-999,-999.0,-999.0,43,-99.99,,,-99.99,WSDL version 420,2013-01-10 04:18:00,
2013-01-09 21:23:00,42.7,21.5,-100.00,North,-999,-999.0,-999.0,42,-99.99,,,-99.99,WSDL version 420,2013-01-10 04:23:00,
2013-01-09 21:28:00,42.9,21.4,-100.00,North,-999,-999.0,-999.0,42,-99.99,,,-99.99,WSDL version 420,2013-01-10 04:28:00,
2013-01-09 21:33:00,43.0,21.5,-100.00,North,-999,-999.0,-999.0,42,-99.99,,,-99.99,WSDL version 420,2013-01-10 04:33:00,
2013-01-09 21:38:00,43.2,21.6,-100.00,North,-999,-999.0,-999.0,42,-99.99,,,-99.99,WSDL version 420,2013-01-10 04:38:00,
2013-01-09 21:43:00,43.0,21.5,-100.00,North,-999,-999.0,-999.0,42,-99.99,,,-99.99,WSDL version 420,2013-01-10 04:43:00,
2013-01-09 21:48:00,43.0,21.4,-100.00,North,-999,-999.0,-999.0,42,-99.99,,,-99.99,WSDL version 420,2013-01-10 04:48:00,
2013-01-09 21:53:00,42.8,21.4,-100.00,North,-999,-999.0,-999.0,43,-99.99,,,-99.99,WSDL version 420,2013-01-10 04:53:00,
2013-01-09 21:58:00,42.6,21.7,-100.00,North,-999,-999.0,-999.0,43,-99.99,,,-99.99,WSDL version 420,2013-01-10 04:58:00,
2013-01-09 22:00:00,42.5,21.6,-100.00,North,-999,-999.0,-999.0,43,-99.99,,,-99.99,WSDL version 420,2013-01-10 05:00:00,
2013-01-09 22:03:00,42.4,21.5,-100.00,North,-999,-999.0,-999.0,43,-99.99,,,-99.99,WSDL version 420,2013-01-10 05:03:00,
2013-01-09 22:04:00,42.4,21.5,-100.00,North,-999,-999.0,-999.0,43,-99.99,,,-99.99,WSDL version 420,2013-01-10 05:04:00,
2013-01-09 22:09:00,42.3,21.4,-100.00,North,-999,-999.0,-999.0,43,-99.99,,,-99.99,WSDL version 420,2013-01-10 05:09:00,
2013-01-09 22:14:00,42.1,21.3,-100.00,North,-999,-999.0,-999.0,43,-99.99,,,-99.99,WSDL version 420,2013-01-10 05:14:00,
2013-01-09 22:19:00,42.1,21.2,-100.00,North,-999,-999.0,-999.0,43,-99.99,,,-99.99,WSDL version 420,2013-01-10 05:19:00,
2013-01-09 22:24:00,41.9,21.0,-100.00,North,-999,-999.0,-999.0,43,-99.99,,,-99.99,WSDL version 420,2013-01-10 05:24:00,
2013-01-09 22:29:00,41.9,21.0,-100.00,North,-999,-999.0,-999.0,43,-99.99,,,-99.99,WSDL version 420,2013-01-10 05:29:00,
2013-01-09 22:32:00,41.9,21.0,-100.00,North,-999,-999.0,-999.0,43,-99.99,,,-99.99,WSDL version 420,2013-01-10 05:32:00,
2013-01-09 22:37:00,42.0,21.1,-100.00,North,-999,-999.0,-999.0,43,-99.99,,,-99.99,WSDL version 420,2013-01-10 05:37:00,
2013-01-09 22:42:00,42.1,21.2,-100.00,North,-999,-999.0,-999.0,43,-99.99,,,-99.99,WSDL version 420,2013-01-10 05:42:00,
2013-01-09 22:47:00,42.1,21.2,-100.00,North,-999,-999.0,-999.0,43,-99.99,,,-99.99,WSDL version 420,2013-01-10 05:47:00,
2013-01-09 22:52:00,41.9,21.1,-100.00,North,-999,-999.0,-999.0,43,-99.99,,,-99.99,WSDL version 420,2013-01-10 05:52:00,
2013-01-09 22:57:00,41.9,21.0,-100.00,North,-999,-999.0,-999.0,43,-99.99,,,-99.99,WSDL version 420,2013-01-10 05:57:00,
2013-01-09 23:02:00,41.9,21.0,-100.00,North,-999,-999.0,-999.0,43,-99.99,,,-99.99,WSDL version 420,2013-01-10 06:02:00,
2013-01-09 23:07:00,41.9,21.0,-100.00,North,-999,-999.0,-999.0,43,-99.99,,,-99.99,WSDL version 420,2013-01-10 06:07:00,
2013-01-09 23:12:00,41.8,21.0,-100.00,North,-999,-999.0,-999.0,43,-99.99,,,-99.99,WSDL version 420,2013-01-10 06:12:00,
2013-01-09 23:17:00,41.7,20.9,-100.00,North,-999,-999.0,-999.0,43,-99.99,,,-99.99,WSDL version 420,2013-01-10 06:17:00,
2013-01-09 23:22:00,41.7,20.9,-100.00,North,-999,-999.0,-999.0,43,-99.99,,,-99.99,WSDL version 420,2013-01-10 06:22:00,
2013-01-09 23:27:00,41.7,20.9,-100.00,North,-999,-999.0,-999.0,43,-99.99,,,-99.99,WSDL version 420,2013-01-10 06:27:00,
2013-01-09 23:32:00,41.8,21.0,-100.00,North,-999,-999.0,-999.0,43,-99.99,,,-99.99,WSDL version 420,2013-01-10 06:32:00,
2013-01-09 23:37:00,41.8,21.0,-100.00,North,-999,-999.0,-999.0,43,-99.99,,,-99.99,WSDL version 420,2013-01-10 06:37:00,
2013-01-09 23:42:00,41.7,20.9,-100.00,North,-999,-999.0,-999.0,43,-99.99,,,-99.99,WSDL version 420,2013-01-10 06:42:00,
2013-01-09 23:47:00,41.5,20.7,-100.00,North,-999,-999.0,-999.0,43,-99.99,,,-99.99,WSDL version 420,2013-01-10 06:47:00,
2013-01-09 23:52:00,41.5,20.7,-100.00,North,-999,-999.0,-999.0,43,-99.99,,,-99.99,WSDL version 420,2013-01-10 06:52:00,
2013-01-09 23:57:00,41.1,20.3,-100.00,North,-999,-999.0,-999.0,43,-99.99,,,-99.99,WSDL version 420,2013-01-10 06:57:00,